Time;durP1;ratioP1;P1;durP2;ratioP2;P2;SDS_P1;SDS_P2;PMS_P1;PMS_P2;Temp;Humidity;BMP_temperature;BMP_pressure;BME280_temperature;BME280_humidity;BME280_pressure;Samples;Min_cycle;Max_cycle;Signal;HPM_P1;HPM_P2
2024/03/14 00:00:22;;;;;;;11.43;7.43;;;;;;;16.52;77.36;101122.88;143728;578;47004;-80
2024/03/14 00:02:50;;;;;;;10.57;7.32;;;;;;;16.54;77.93;101118.06;143726;604;47009;-82
2024/03/14 00:05:18;;;;;;;10.68;7.53;;;;;;;16.48;78.14;101117.09;143729;567;46002;-81
2024/03/14 00:07:47;;;;;;;11.90;7.70;;;;;;;16.39;77.96;101118.50;143728;630;46006;-80
2024/03/14 00:10:14;;;;;;;10.60;6.03;;;;;;;16.43;77.63;101113.44;143733;583;46004;-80
2024/03/14 00:12:41;;;;;;;7.35;5.72;;;;;;;16.45;77.00;101106.72;143731;573;46004;-81
2024/03/14 00:15:11;;;;;;;8.65;5.75;;;;;;;16.43;77.53;101108.00;143732;593;45922;-82
2024/03/14 00:17:37;;;;;;;8.55;5.30;;;;;;;16.46;77.44;101108.37;143731;605;45920;-81
2024/03/14 00:20:05;;;;;;;6.93;5.62;;;;;;;16.47;77.52;101107.31;143723;603;47004;-81
2024/03/14 00:22:34;;;;;;;13.00;6.12;;;;;;;16.55;76.89;101108.06;143732;576;45918;-79
2024/03/14 00:25:01;;;;;;;8.13;5.43;;;;;;;16.58;76.63;101110.31;143729;573;46003;-82
2024/03/14 00:27:28;;;;;;;10.75;5.70;;;;;;;16.52;77.07;101120.19;143730;608;46004;-82
2024/03/14 00:29:56;;;;;;;9.48;6.35;;;;;;;16.50;77.13;101109.56;143729;597;47002;-81
2024/03/14 00:32:26;;;;;;;9.30;5.93;;;;;;;16.48;76.92;101117.09;143727;622;48010;-82
2024/03/14 00:34:53;;;;;;;8.07;6.12;;;;;;;16.46;77.11;101115.69;143727;591;48004;-81
2024/03/14 00:37:20;;;;;;;9.13;6.15;;;;;;;16.52;77.87;101128.31;143729;566;46006;-82
2024/03/14 00:39:47;;;;;;;9.20;5.80;;;;;;;16.49;78.12;101117.94;143727;630;47004;-81
2024/03/14 00:42:14;;;;;;;11.65;7.00;;;;;;;16.44;77.68;101125.94;143731;632;45918;-81
2024/03/14 00:44:42;;;;;;;8.82;6.53;;;;;;;16.42;76.90;101123.44;143727;632;47002;-83
2024/03/14 00:47:09;;;;;;;11.20;6.45;;;;;;;16.47;77.06;101137.12;143730;593;46004;-81
2024/03/14 00:49:35;;;;;;;7.93;5.62;;;;;;;16.48;78.30;101136.09;143726;629;47005;-82
2024/03/14 00:52:02;;;;;;;9.90;6.72;;;;;;;16.44;77.59;101129.44;143730;608;46002;-80
2024/03/14 00:54:29;;;;;;;11.52;7.07;;;;;;;16.41;78.52;101138.06;143721;581;47004;-82
2024/03/14 00:56:56;;;;;;;11.27;7.10;;;;;;;16.36;78.41;101138.72;143726;659;47002;-81
2024/03/14 00:59:23;;;;;;;10.50;7.30;;;;;;;16.30;78.72;101139.66;143728;661;46004;-81
2024/03/14 01:01:50;;;;;;;15.35;7.75;;;;;;;16.27;79.47;101131.97;143729;567;46004;-81
2024/03/14 01:04:18;;;;;;;12.32;7.82;;;;;;;16.27;79.04;101123.84;143726;646;46922;-81
2024/03/14 01:06:44;;;;;;;16.27;10.77;;;;;;;16.15;79.80;101123.75;143727;597;46004;-82
2024/03/14 01:09:13;;;;;;;16.12;9.90;;;;;;;16.15;80.11;101126.47;143731;612;46004;-82
2024/03/14 01:11:40;;;;;;;14.80;10.05;;;;;;;16.14;80.04;101119.38;143729;654;45918;-80
2024/03/14 01:14:06;;;;;;;18.15;10.68;;;;;;;16.15;80.24;101125.66;143720;568;47004;-81
2024/03/14 01:16:33;;;;;;;16.30;10.68;;;;;;;16.17;79.74;101123.53;143725;623;46006;-80
2024/03/14 01:18:59;;;;;;;18.48;11.07;;;;;;;16.21;80.65;101127.44;143725;598;47002;-83
2024/03/14 01:21:26;;;;;;;19.85;10.95;;;;;;;16.20;80.35;101121.22;143728;649;46010;-80
2024/03/14 01:23:54;;;;;;;18.85;11.00;;;;;;;16.14;80.10;101115.88;143728;566;46004;-81
2024/03/14 01:26:20;;;;;;;17.35;8.23;;;;;;;16.14;80.52;101118.56;143726;573;46019;-81
2024/03/14 01:28:48;;;;;;;15.07;8.52;;;;;;;16.13;81.49;101122.34;143729;638;46004;-81
2024/03/14 01:31:17;;;;;;;12.68;6.47;;;;;;;16.04;81.40;101114.50;143726;660;46008;-80
2024/03/14 01:33:44;;;;;;;14.07;6.18;;;;;;;16.01;81.52;101114.94;143723;579;47011;-81
2024/03/14 01:36:11;;;;;;;13.73;9.25;;;;;;;15.99;81.61;101113.53;143728;575;46008;-80
2024/03/14 01:38:38;;;;;;;8.68;5.85;;;;;;;15.93;81.92;101119.81;143726;586;47004;-81
2024/03/14 01:41:17;;;;;;;11.10;6.28;;;;;;;15.88;82.48;101120.50;143725;649;47013;-81
2024/03/14 01:43:57;;;;;;;9.40;5.85;;;;;;;15.93;82.40;101115.25;143720;625;47006;-81
2024/03/14 01:46:29;;;;;;;7.40;5.30;;;;;;;15.96;82.32;101116.69;143726;628;46925;-81
2024/03/14 01:48:56;;;;;;;9.65;5.55;;;;;;;15.98;82.14;101122.69;143729;640;48007;-81
2024/03/14 01:51:24;;;;;;;9.38;5.40;;;;;;;16.02;82.49;101122.03;143722;580;48012;-81
2024/03/14 01:53:51;;;;;;;7.95;5.87;;;;;;;16.08;82.88;101125.69;143722;577;48006;-82
2024/03/14 01:56:22;;;;;;;7.75;5.12;;;;;;;16.06;82.92;101115.09;143727;604;46009;-80
2024/03/14 01:58:52;;;;;;;10.77;5.70;;;;;;;16.05;81.75;101118.87;143723;568;47002;-81
2024/03/14 02:01:23;;;;;;;7.22;5.22;;;;;;;16.12;82.20;101129.63;143721;569;47010;-82
2024/03/14 02:04:12;;;;;;;7.85;5.32;;;;;;;16.03;82.06;101120.16;143719;626;47006;-82
2024/03/14 02:06:48;;;;;;;11.12;6.78;;;;;;;16.08;82.22;101117.56;143712;639;47004;-81
2024/03/14 02:09:15;;;;;;;10.45;5.75;;;;;;;16.23;82.59;101125.34;143713;607;46015;-81
2024/03/14 02:11:41;;;;;;;9.63;5.70;;;;;;;16.30;83.18;101119.84;143711;599;47010;-82
2024/03/14 02:14:07;;;;;;;9.77;4.78;;;;;;;16.32;83.01;101126.69;143721;601;47010;-82
2024/03/14 02:16:33;;;;;;;7.40;5.07;;;;;;;16.41;81.77;101121.81;143714;653;46008;-81
2024/03/14 02:18:59;;;;;;;9.27;5.30;;;;;;;16.49;81.91;101117.94;143715;580;50004;-81
2024/03/14 02:21:25;;;;;;;8.38;5.45;;;;;;;16.55;81.96;101121.63;143718;649;47010;-82
2024/03/14 02:23:51;;;;;;;11.57;5.65;;;;;;;16.61;82.08;101120.69;143715;630;46013;-81
2024/03/14 02:26:17;;;;;;;12.60;6.30;;;;;;;16.62;82.47;101116.91;143710;631;47008;-81
2024/03/14 02:28:43;;;;;;;9.80;5.55;;;;;;;16.64;82.18;101110.22;143714;586;46014;-78
2024/03/14 02:31:10;;;;;;;7.85;5.20;;;;;;;16.63;82.21;101115.88;143719;567;47006;-76
2024/03/14 02:33:38;;;;;;;6.78;4.65;;;;;;;16.54;82.28;101120.78;143726;582;46006;-81
2024/03/14 02:36:05;;;;;;;16.62;5.50;;;;;;;16.53;82.60;101119.13;143731;577;46006;-81
2024/03/14 02:38:33;;;;;;;8.20;4.85;;;;;;;16.49;83.41;101117.94;143730;569;46006;-79
2024/03/14 02:41:00;;;;;;;7.72;4.80;;;;;;;16.50;84.29;101120.41;143710;624;51004;-81
2024/03/14 02:43:28;;;;;;;7.68;4.80;;;;;;;16.52;83.73;101112.03;143727;600;46006;-81
2024/03/14 02:45:54;;;;;;;11.00;4.85;;;;;;;16.47;84.13;101120.88;143717;596;47008;-81
2024/03/14 02:48:22;;;;;;;11.10;4.85;;;;;;;16.44;84.07;101121.31;143731;652;46007;-80
2024/03/14 02:50:49;;;;;;;13.02;4.90;;;;;;;16.38;84.21;101124.97;143724;634;47012;-81
2024/03/14 02:53:16;;;;;;;8.00;5.03;;;;;;;16.38;83.98;101116.81;143726;622;47004;-81
2024/03/14 02:55:44;;;;;;;9.05;5.00;;;;;;;16.37;84.51;101115.97;143719;590;51008;-80
2024/03/14 02:58:11;;;;;;;7.50;4.75;;;;;;;16.33;84.73;101111.25;143729;577;46006;-81
2024/03/14 03:00:38;;;;;;;7.00;4.80;;;;;;;16.29;85.07;101118.19;143725;603;47010;-81
2024/03/14 03:03:06;;;;;;;6.07;5.40;;;;;;;16.25;85.01;101109.69;143725;614;47006;-83
2024/03/14 03:05:34;;;;;;;10.23;5.35;;;;;;;16.20;85.20;101109.53;143727;647;45924;-80
2024/03/14 03:08:00;;;;;;;8.13;4.68;;;;;;;16.19;84.66;101105.16;143731;569;46006;-80
2024/03/14 03:10:27;;;;;;;15.02;4.95;;;;;;;16.15;84.59;101112.09;143725;597;47010;-80
2024/03/14 03:12:54;;;;;;;12.63;4.70;;;;;;;16.13;84.34;101114.22;143729;628;45926;-82
2024/03/14 03:15:20;;;;;;;7.90;5.00;;;;;;;16.06;84.28;101109.69;143726;567;46008;-80
2024/03/14 03:17:47;;;;;;;12.68;5.57;;;;;;;16.05;85.51;101120.75;143731;569;46007;-80
2024/03/14 03:20:16;;;;;;;13.62;7.00;;;;;;;16.08;85.71;101111.34;143728;644;46006;-81
2024/03/14 03:25:28;;;;;;;10.40;6.97;;;;;;;16.05;85.51;101112.63;143727;596;46011;-81
2024/03/14 03:27:55;;;;;;;11.75;6.65;;;;;;;16.09;85.51;101113.81;143729;646;47006;-81
2024/03/14 03:30:21;;;;;;;10.60;5.72;;;;;;;16.04;86.32;101114.50;143723;600;50012;-80
2024/03/14 03:32:50;;;;;;;12.98;6.87;;;;;;;16.03;87.25;101110.12;143722;593;47010;-81
2024/03/14 03:35:18;;;;;;;10.00;6.00;;;;;;;15.99;87.07;101114.34;143728;567;46006;-80
2024/03/14 03:37:47;;;;;;;9.32;6.12;;;;;;;15.95;87.89;101123.16;143728;577;47006;-81
2024/03/14 03:40:15;;;;;;;12.75;6.22;;;;;;;15.93;88.06;101128.81;143727;580;47010;-83
2024/03/14 03:42:42;;;;;;;10.82;7.20;;;;;;;15.90;87.53;101124.63;143723;572;47006;-81
2024/03/14 03:45:11;;;;;;;9.93;7.32;;;;;;;15.86;87.69;101123.44;143713;634;56006;-79
2024/03/14 03:47:37;;;;;;;12.35;6.32;;;;;;;15.80;88.57;101128.87;143721;617;51006;-81
2024/03/14 03:50:06;;;;;;;7.93;5.12;;;;;;;15.80;89.23;101123.47;143718;634;50010;-80
2024/03/14 03:52:32;;;;;;;7.78;5.40;;;;;;;15.75;89.21;101133.09;143727;573;46006;-80
2024/03/14 03:54:59;;;;;;;10.40;5.68;;;;;;;15.75;89.49;101140.38;143725;579;46006;-81
2024/03/14 03:57:26;;;;;;;5.90;3.90;;;;;;;15.69;89.49;101144.00;143722;569;47013;-81
2024/03/14 03:59:53;;;;;;;6.72;3.42;;;;;;;15.73;89.25;101145.19;143722;603;48006;-81
2024/03/14 04:02:20;;;;;;;5.28;3.58;;;;;;;15.74;88.92;101141.44;143729;567;45926;-81
2024/03/14 04:04:47;;;;;;;8.98;2.95;;;;;;;15.74;89.31;101145.00;143725;604;46008;-80
2024/03/14 04:07:17;;;;;;;5.03;3.28;;;;;;;15.70;89.37;101140.25;143730;592;46006;-82
2024/03/14 04:09:51;;;;;;;6.95;3.10;;;;;;;15.65;89.27;101148.19;143726;575;47013;-81
2024/03/14 04:12:18;;;;;;;5.30;3.40;;;;;;;15.63;89.65;101145.69;143727;643;47004;-80
2024/03/14 04:14:44;;;;;;;9.10;3.37;;;;;;;15.66;89.88;101149.88;143727;600;46016;-81
2024/03/14 04:17:14;;;;;;;7.00;3.85;;;;;;;15.59;90.42;101150.75;143719;587;49007;-82
2024/03/14 04:19:41;;;;;;;7.93;4.28;;;;;;;15.52;90.45;101158.09;143728;647;46012;-81
2024/03/14 04:22:08;;;;;;;9.07;4.22;;;;;;;15.46;91.03;101165.19;143724;613;47010;-82
2024/03/14 04:24:35;;;;;;;12.40;5.32;;;;;;;15.46;91.31;101170.62;143729;572;45924;-82
2024/03/14 04:27:05;;;;;;;24.80;12.68;;;;;;;15.46;92.07;101175.22;143725;568;47004;-81
2024/03/14 04:29:32;;;;;;;19.55;9.50;;;;;;;15.41;92.65;101172.31;143723;582;47012;-81
2024/03/14 04:31:59;;;;;;;9.85;6.70;;;;;;;15.32;93.02;101171.78;143725;606;47004;-81
2024/03/14 04:34:26;;;;;;;11.80;6.25;;;;;;;15.26;93.49;101169.97;143716;611;48008;-82
2024/03/14 04:36:53;;;;;;;10.65;5.03;;;;;;;15.30;94.43;101172.00;143729;598;46006;-81
2024/03/14 04:39:20;;;;;;;13.30;5.53;;;;;;;15.27;94.74;101177.00;143725;649;47012;-81
2024/03/14 04:41:47;;;;;;;18.35;7.22;;;;;;;15.21;95.22;101176.00;143723;588;48006;-80
2024/03/14 04:44:14;;;;;;;12.98;5.82;;;;;;;15.12;96.01;101186.25;143727;595;46006;-81
2024/03/14 04:46:41;;;;;;;11.15;5.70;;;;;;;15.10;96.30;101185.63;143724;597;48004;-82
2024/03/14 04:49:09;;;;;;;14.32;6.45;;;;;;;15.11;97.25;101194.59;143727;622;46012;-81
2024/03/14 04:51:36;;;;;;;13.27;5.87;;;;;;;15.15;96.59;101196.66;143719;577;49010;-80
2024/03/14 04:54:03;;;;;;;11.85;5.85;;;;;;;15.09;96.93;101200.22;143724;600;47008;-81
2024/03/14 04:56:31;;;;;;;16.98;5.62;;;;;;;15.07;97.54;101204.19;143727;569;47004;-82
2024/03/14 04:58:58;;;;;;;13.55;6.15;;;;;;;15.05;97.78;101201.72;143728;612;46004;-81
2024/03/14 05:01:25;;;;;;;8.50;5.95;;;;;;;15.04;98.24;101210.03;143725;589;47004;-82
2024/03/14 05:03:52;;;;;;;11.68;6.00;;;;;;;15.01;98.40;101208.59;143726;630;46022;-81
2024/03/14 05:06:20;;;;;;;11.07;5.68;;;;;;;14.98;98.81;101207.16;143727;617;46006;-81
2024/03/14 05:08:48;;;;;;;13.05;6.10;;;;;;;15.11;99.18;101216.25;143729;604;45923;-78
2024/03/14 05:11:15;;;;;;;15.35;6.32;;;;;;;15.08;99.14;101222.94;143727;578;46006;-82
2024/03/14 05:13:42;;;;;;;12.20;6.18;;;;;;;15.09;99.20;101218.34;143727;600;46006;-82
2024/03/14 05:16:11;;;;;;;15.88;6.62;;;;;;;15.10;99.80;101220.00;143705;607;51002;-81
2024/03/14 05:18:38;;;;;;;16.00;8.15;;;;;;;15.12;99.71;101223.31;143729;600;45922;-81
2024/03/14 05:21:10;;;;;;;23.85;11.12;;;;;;;15.20;99.84;101223.03;143721;587;48004;-81
2024/03/14 05:23:37;;;;;;;23.52;11.43;;;;;;;15.24;99.86;101226.97;143719;598;47004;-81
2024/03/14 05:26:06;;;;;;;16.30;9.70;;;;;;;15.23;99.94;101225.31;143723;589;47006;-80
2024/03/14 05:28:35;;;;;;;18.87;8.18;;;;;;;15.24;100.00;101224.28;143726;580;47010;-81
2024/03/14 05:31:03;;;;;;;17.10;6.47;;;;;;;15.28;100.00;101228.22;143723;590;46010;-80
2024/03/14 05:33:29;;;;;;;16.08;6.87;;;;;;;15.35;100.00;101221.94;143722;573;46008;-81
2024/03/14 05:35:56;;;;;;;16.52;8.18;;;;;;;15.41;100.00;101216.47;143723;593;47002;-80
2024/03/14 05:38:23;;;;;;;13.90;6.78;;;;;;;15.42;99.06;101214.59;143722;568;46010;-81
2024/03/14 05:40:52;;;;;;;15.95;6.25;;;;;;;15.44;98.70;101216.03;143729;583;45927;-80
2024/03/14 05:43:19;;;;;;;16.65;7.30;;;;;;;15.51;98.14;101225.97;143724;608;46008;-81
2024/03/14 05:45:46;;;;;;;11.80;7.12;;;;;;;15.56;99.08;101234.28;143730;581;46006;-81
2024/03/14 05:48:13;;;;;;;19.40;7.97;;;;;;;15.64;100.00;101233.19;143726;617;47012;-82
2024/03/14 05:50:44;;;;;;;17.83;8.45;;;;;;;15.75;100.00;101237.88;143722;566;46010;-81
2024/03/14 05:53:11;;;;;;;22.92;8.38;;;;;;;15.85;100.00;101238.25;143715;597;47008;-82
2024/03/14 05:55:38;;;;;;;23.65;8.48;;;;;;;15.92;99.37;101227.38;143720;599;47008;-80
2024/03/14 05:58:08;;;;;;;18.60;8.50;;;;;;;16.05;97.86;101232.66;143725;572;46027;-81
2024/03/14 06:00:35;;;;;;;12.73;8.30;;;;;;;16.14;97.05;101235.91;143729;656;46004;-82
2024/03/14 06:03:02;;;;;;;13.20;8.02;;;;;;;16.14;97.09;101243.22;143727;574;46924;-80
2024/03/14 06:05:30;;;;;;;17.65;8.32;;;;;;;16.21;96.95;101241.28;143723;641;46006;-81
2024/03/14 06:07:57;;;;;;;11.70;7.62;;;;;;;16.28;96.40;101246.63;143727;584;46012;-81
2024/03/14 06:10:24;;;;;;;13.15;7.47;;;;;;;16.32;95.26;101253.25;143724;567;47004;-81
2024/03/14 06:12:51;;;;;;;19.12;7.55;;;;;;;16.39;94.92;101251.31;143730;593;46006;-81
2024/03/14 06:15:18;;;;;;;14.38;7.85;;;;;;;16.49;94.55;101250.81;143720;586;48004;-81
2024/03/14 06:17:50;;;;;;;18.15;8.20;;;;;;;16.54;94.02;101250.13;143726;627;46030;-81
2024/03/14 06:20:18;;;;;;;13.02;6.43;;;;;;;16.58;92.48;101254.88;143723;572;47004;-81
2024/03/14 06:22:45;;;;;;;12.68;5.57;;;;;;;16.63;91.58;101255.03;143726;609;46007;-82
2024/03/14 06:25:11;;;;;;;8.68;5.60;;;;;;;16.69;90.91;101247.84;143729;594;46004;-81
2024/03/14 06:27:39;;;;;;;13.43;5.28;;;;;;;16.79;90.75;101250.03;143727;582;46008;-81
2024/03/14 06:30:09;;;;;;;9.32;5.32;;;;;;;16.92;90.52;101255.28;143719;568;47010;-80
2024/03/14 06:32:36;;;;;;;8.73;5.10;;;;;;;17.01;92.06;101252.31;143722;649;47008;-81
2024/03/14 06:35:05;;;;;;;9.85;4.97;;;;;;;17.08;90.21;101253.87;143730;595;46004;-82
2024/03/14 06:37:32;;;;;;;11.45;5.28;;;;;;;17.13;90.07;101253.19;143727;629;46010;-82
2024/03/14 06:39:59;;;;;;;6.93;4.78;;;;;;;17.21;89.69;101257.47;143728;602;46004;-81
2024/03/14 06:42:26;;;;;;;9.13;4.87;;;;;;;17.32;91.10;101258.56;143727;576;46004;-80
2024/03/14 06:44:52;;;;;;;9.93;4.85;;;;;;;17.41;89.80;101262.59;143731;590;46004;-80
2024/03/14 06:47:20;;;;;;;10.48;5.60;;;;;;;17.47;89.91;101267.13;143721;610;46008;-80
2024/03/14 06:49:47;;;;;;;11.43;5.90;;;;;;;17.50;89.92;101274.81;143727;582;46004;-80
2024/03/14 06:52:14;;;;;;;13.18;6.30;;;;;;;17.51;90.21;101262.91;143723;620;48006;-81
2024/03/14 06:54:40;;;;;;;14.50;6.93;;;;;;;17.62;90.02;101276.72;143726;576;47004;-79
2024/03/14 06:57:09;;;;;;;9.30;5.60;;;;;;;17.69;89.40;101266.59;143721;566;47008;-80
2024/03/14 06:59:37;;;;;;;10.23;5.60;;;;;;;17.79;89.27;101276.91;143727;578;46004;-80
2024/03/14 07:02:05;;;;;;;11.68;5.90;;;;;;;17.73;88.31;101278.66;143724;576;47006;-81
2024/03/14 07:04:35;;;;;;;11.60;6.00;;;;;;;17.79;88.54;101271.47;143731;592;46004;-80
2024/03/14 07:07:03;;;;;;;10.95;5.53;;;;;;;17.88;87.55;101276.31;143727;589;47008;-79
2024/03/14 07:09:30;;;;;;;13.48;6.10;;;;;;;17.95;86.88;101280.81;143729;578;46004;-81
2024/03/14 07:11:57;;;;;;;9.90;6.55;;;;;;;18.10;86.88;101283.09;143726;618;46004;-82
2024/03/14 07:14:25;;;;;;;16.08;5.03;;;;;;;18.12;86.62;101281.00;143732;572;46004;-80
2024/03/14 07:16:53;;;;;;;10.85;4.22;;;;;;;18.21;86.72;101281.47;143729;597;46004;-80
2024/03/14 07:19:23;;;;;;;8.98;4.12;;;;;;;18.25;85.61;101282.66;143719;598;47004;-79
2024/03/14 07:21:53;;;;;;;10.27;3.90;;;;;;;18.33;85.60;101288.56;143712;567;51002;-81
2024/03/14 07:24:23;;;;;;;10.90;3.83;;;;;;;18.41;85.27;101289.25;143727;569;47004;-80
2024/03/14 07:26:51;;;;;;;8.75;4.43;;;;;;;18.48;84.28;101285.34;143719;608;48008;-80
2024/03/14 07:29:19;;;;;;;7.28;4.20;;;;;;;18.46;84.47;101292.09;143724;594;47002;-78
2024/03/14 07:31:51;;;;;;;7.55;3.40;;;;;;;18.51;84.23;101291.37;143728;573;46016;-80
2024/03/14 07:34:18;;;;;;;5.80;3.55;;;;;;;18.50;84.05;101285.13;143727;622;47000;-78
2024/03/14 07:36:45;;;;;;;6.28;3.40;;;;;;;18.57;83.70;101285.81;143717;601;48004;-79
2024/03/14 07:39:14;;;;;;;8.25;4.07;;;;;;;18.63;83.37;101287.59;143726;592;47004;-80
2024/03/14 07:41:41;;;;;;;8.27;3.55;;;;;;;18.73;83.60;101297.87;143723;569;47006;-82
2024/03/14 07:44:09;;;;;;;12.65;5.00;;;;;;;18.85;82.97;101295.13;143728;567;47004;-77
2024/03/14 07:46:37;;;;;;;6.43;3.33;;;;;;;18.93;82.30;101286.56;143726;584;46008;-79
2024/03/14 07:49:04;;;;;;;7.60;3.95;;;;;;;19.08;81.82;101290.69;143721;595;47004;-78
2024/03/14 07:51:33;;;;;;;8.30;3.70;;;;;;;19.22;82.13;101299.41;143729;599;46007;-80
2024/03/14 07:54:00;;;;;;;9.50;4.18;;;;;;;19.32;81.03;101296.06;143731;604;46004;-80
2024/03/14 07:56:29;;;;;;;8.10;4.05;;;;;;;19.45;81.35;101297.69;143718;599;47008;-80
2024/03/14 07:58:57;;;;;;;6.47;3.55;;;;;;;19.46;80.55;101300.16;143728;634;46005;-79
2024/03/14 08:01:27;;;;;;;9.02;4.00;;;;;;;19.54;80.70;101302.50;143728;579;46006;-80
2024/03/14 08:03:57;;;;;;;7.30;3.55;;;;;;;19.71;80.70;101307.16;143726;742;46016;-80
2024/03/14 08:06:24;;;;;;;8.48;3.90;;;;;;;19.78;78.47;101299.62;143726;574;49009;-81
2024/03/14 08:08:51;;;;;;;8.52;3.78;;;;;;;19.87;78.18;101293.78;143724;694;47004;-80
2024/03/14 08:11:21;;;;;;;5.53;3.72;;;;;;;19.95;78.03;101287.94;143726;582;46004;-79
2024/03/14 08:13:51;;;;;;;9.55;3.47;;;;;;;20.08;79.66;101295.78;143730;985;46004;-80
2024/03/14 08:16:19;;;;;;;9.48;3.20;;;;;;;20.15;76.76;101296.44;143730;591;46010;-80
2024/03/14 08:18:46;;;;;;;5.62;2.78;;;;;;;20.10;75.68;101296.38;143728;572;46006;-81
2024/03/14 08:21:14;;;;;;;6.78;2.42;;;;;;;20.10;75.56;101303.72;143728;851;46004;-80
2024/03/14 08:23:48;;;;;;;4.32;2.75;;;;;;;20.02;75.15;101302.22;143723;658;47002;-80
2024/03/14 08:26:17;;;;;;;;;;;;;;;20.14;74.68;101305.69;143730;986;47008;-77
2024/03/14 08:28:45;;;;;;;3.40;2.75;;;;;;;20.20;74.34;101311.22;143734;594;46002;-80
2024/03/14 08:31:15;;;;;;;4.97;2.37;;;;;;;20.40;72.84;101302.53;143726;567;46011;-78
2024/03/14 08:33:45;;;;;;;7.07;3.10;;;;;;;20.53;74.00;101298.63;143722;903;47014;-78
2024/03/14 08:36:13;;;;;;;9.52;3.30;;;;;;;20.61;74.09;101306.38;143725;895;47009;-79
2024/03/14 08:38:40;;;;;;;5.15;2.80;;;;;;;20.71;73.77;101309.25;143724;572;47004;-78
2024/03/14 08:41:07;;;;;;;12.45;3.15;;;;;;;20.74;73.15;101299.72;143712;743;57004;-78
2024/03/14 08:43:36;;;;;;;4.97;2.95;;;;;;;20.77;74.58;101298.44;143731;896;46006;-79
2024/03/14 08:46:03;;;;;;;9.57;3.30;;;;;;;20.66;74.46;101298.25;143726;918;46006;-78
2024/03/14 08:48:31;;;;;;;9.10;3.08;;;;;;;20.79;74.07;101309.94;143729;860;46006;-79
2024/03/14 08:50:58;;;;;;;10.98;3.12;;;;;;;20.80;73.46;101300.66;143727;792;46004;-79
2024/03/14 08:53:30;;;;;;;6.55;2.42;;;;;;;20.93;73.25;101303.00;143728;759;46008;-79
2024/03/14 08:55:56;;;;;;;13.13;2.70;;;;;;;20.96;72.35;101298.94;143726;830;47010;-79
2024/03/14 08:58:29;;;;;;;5.22;2.75;;;;;;;21.20;73.07;101297.59;143726;802;48002;-78
2024/03/14 09:00:56;;;;;;;6.65;2.20;;;;;;;21.34;72.04;101291.72;143730;983;46004;-79
2024/03/14 09:03:23;;;;;;;4.43;2.40;;;;;;;21.47;74.75;101291.31;143730;986;46006;-78
2024/03/14 09:05:50;;;;;;;3.03;2.33;;;;;;;21.67;75.80;101292.62;143728;824;46009;-78
2024/03/14 09:08:24;;;;;;;5.28;3.20;;;;;;;21.84;74.86;101286.19;143725;582;47008;-79
2024/03/14 09:10:53;;;;;;;6.53;3.70;;;;;;;22.03;74.98;101284.72;143726;986;46006;-77
2024/03/14 09:13:20;;;;;;;5.07;3.10;;;;;;;22.16;72.81;101282.59;143730;940;47002;-78
2024/03/14 09:15:50;;;;;;;4.62;2.67;;;;;;;22.38;72.95;101283.31;143709;972;52006;-78
2024/03/14 09:18:19;;;;;;;2.70;2.30;;;;;;;22.53;70.25;101282.59;143721;951;50004;-78
2024/03/14 09:20:48;;;;;;;3.50;2.70;;;;;;;22.80;72.60;101273.41;143721;589;48021;-80
2024/03/14 09:23:19;;;;;;;4.25;2.20;;;;;;;22.92;70.87;101269.62;143730;573;46004;-81
2024/03/14 09:25:46;;;;;;;3.20;2.37;;;;;;;23.10;69.41;101269.16;143728;580;47010;-80
2024/03/14 09:28:13;;;;;;;3.67;3.00;;;;;;;23.26;68.07;101266.47;143728;581;46012;-81
2024/03/14 09:30:42;;;;;;;3.83;2.87;;;;;;;23.43;68.35;101261.56;143727;909;46006;-79
2024/03/14 09:33:09;;;;;;;2.42;1.90;;;;;;;23.55;66.12;101255.81;143724;695;47002;-78
2024/03/14 09:35:44;;;;;;;4.07;2.62;;;;;;;23.64;65.35;101255.25;143729;569;47008;-80
2024/03/14 09:38:11;;;;;;;2.92;1.87;;;;;;;23.66;60.87;101253.87;143721;599;48004;-81
2024/03/14 09:40:40;;;;;;;2.15;1.62;;;;;;;23.77;59.49;101251.97;143725;603;47002;-80
2024/03/14 09:43:13;;;;;;;2.97;2.28;;;;;;;23.98;58.61;101252.81;143715;586;51000;-81
2024/03/14 09:45:42;;;;;;;2.63;1.93;;;;;;;24.33;60.14;101251.09;143727;604;46006;-79
2024/03/14 09:48:12;;;;;;;2.90;2.20;;;;;;;24.49;60.93;101256.53;143728;607;46006;-80
2024/03/14 09:50:39;;;;;;;2.95;2.30;;;;;;;24.58;58.58;101254.84;143724;591;46004;-79
2024/03/14 09:53:10;;;;;;;3.25;1.83;;;;;;;24.55;57.13;101252.66;143725;567;46004;-81
2024/03/14 09:55:36;;;;;;;1.95;1.50;;;;;;;24.38;56.30;101242.03;143729;595;47010;-79
2024/03/14 09:58:04;;;;;;;2.95;1.80;;;;;;;24.36;55.89;101242.28;143722;649;47004;-80
2024/03/14 10:00:31;;;;;;;7.57;2.33;;;;;;;24.31;55.86;101238.75;143724;572;47006;-79
2024/03/14 10:03:01;;;;;;;3.83;2.15;;;;;;;24.42;56.27;101237.63;143725;600;47002;-83
2024/03/14 10:05:28;;;;;;;3.90;2.78;;;;;;;24.56;55.99;101232.34;143729;568;46006;-80
2024/03/14 10:07:59;;;;;;;2.42;1.65;;;;;;;24.50;55.02;101225.25;143723;692;46006;-79
2024/03/14 10:10:33;;;;;;;7.10;2.55;;;;;;;24.49;55.30;101224.41;143719;577;48920;-80
2024/03/14 10:13:00;;;;;;;;;;;;;;;24.51;54.73;101222.19;143728;986;47002;-80
2024/03/14 10:15:27;;;;;;;5.15;1.80;;;;;;;24.73;55.31;101207.31;143723;574;48004;-80
2024/03/14 10:17:56;;;;;;;4.12;1.60;;;;;;;24.93;55.59;101200.88;143725;736;47004;-80
2024/03/14 10:20:24;;;;;;;3.33;1.60;;;;;;;25.07;55.15;101208.47;143728;573;46005;-78
2024/03/14 10:22:52;;;;;;;3.20;1.55;;;;;;;25.06;53.51;101201.38;143725;599;47004;-80
2024/03/14 10:25:28;;;;;;;4.50;1.70;;;;;;;25.06;54.18;101202.16;143724;603;48917;-80
2024/03/14 10:27:57;;;;;;;1.95;1.48;;;;;;;25.08;52.63;101193.63;143723;625;47004;-80
2024/03/14 10:30:28;;;;;;;2.45;1.87;;;;;;;25.02;53.68;101187.34;143729;575;46004;-80
2024/03/14 10:32:55;;;;;;;4.00;1.87;;;;;;;25.10;53.33;101183.16;143730;575;47013;-80
2024/03/14 10:35:22;;;;;;;2.65;1.60;;;;;;;25.04;52.00;101184.34;143724;644;48010;-80
2024/03/14 10:37:50;;;;;;;4.03;1.58;;;;;;;25.02;52.21;101173.59;143726;651;46006;-79
2024/03/14 10:40:30;;;;;;;2.85;1.60;;;;;;;25.15;52.42;101168.59;143729;655;46004;-79
2024/03/14 10:42:58;;;;;;;5.00;2.80;;;;;;;25.23;55.47;101173.47;143733;568;46004;-80
2024/03/14 10:45:26;;;;;;;3.58;1.87;;;;;;;25.10;56.31;101173.00;143728;592;47008;-80
2024/03/14 10:47:55;;;;;;;4.03;2.30;;;;;;;25.13;56.57;101172.44;143728;582;47002;-80
2024/03/14 10:50:22;;;;;;;4.65;2.50;;;;;;;24.72;55.56;101171.88;143726;633;46920;-79
2024/03/14 10:52:50;;;;;;;2.80;2.50;;;;;;;24.78;56.70;101168.84;143730;578;47004;-79
2024/03/14 10:55:21;;;;;;;5.72;2.05;;;;;;;24.86;55.49;101156.41;143701;579;57010;-80
2024/03/14 10:57:52;;;;;;;7.57;2.15;;;;;;;24.67;54.84;101161.72;143728;615;46006;-80
2024/03/14 11:00:21;;;;;;;4.22;1.80;;;;;;;24.48;55.00;101167.84;143727;655;46004;-81
2024/03/14 11:02:50;;;;;;;4.07;2.58;;;;;;;24.62;56.60;101157.06;143730;680;46008;-78
2024/03/14 11:05:26;;;;;;;4.82;2.30;;;;;;;24.65;56.74;101166.66;143724;586;47010;-80
2024/03/14 11:08:00;;;;;;;6.25;2.55;;;;;;;24.57;57.14;101164.53;143724;573;47004;-80
2024/03/14 11:10:28;;;;;;;5.28;2.33;;;;;;;24.22;58.79;101153.41;143725;596;47006;-81
2024/03/14 11:13:06;;;;;;;6.53;2.50;;;;;;;24.02;60.36;101165.28;143729;567;46007;-79
2024/03/14 11:15:36;;;;;;;7.43;2.92;;;;;;;23.41;62.23;101162.31;143729;573;46004;-79
2024/03/14 11:18:07;;;;;;;4.68;2.55;;;;;;;22.81;62.81;101165.50;143727;595;46004;-79
2024/03/14 11:20:36;;;;;;;4.35;2.40;;;;;;;22.55;63.49;101159.13;143728;738;47006;-81
2024/03/14 11:23:10;;;;;;;3.40;2.35;;;;;;;22.18;63.63;101160.06;143730;677;47002;-79
2024/03/14 11:25:40;;;;;;;4.43;2.42;;;;;;;22.24;63.75;101157.06;143729;598;46010;-80
2024/03/14 11:28:07;;;;;;;5.60;2.80;;;;;;;22.38;64.24;101157.41;143724;574;48008;-79